sensor_id;sensor_type;location;lat;lon;timestamp;P1;durP1;ratioP1;P2;durP2;ratioP2
78209;SDS011;67485;48.816;9.930;2023-06-05T00:01:35;4.88;;;2.50;;
78209;SDS011;67485;48.816;9.930;2023-06-05T00:04:01;4.25;;;2.50;;
78209;SDS011;67485;48.816;9.930;2023-06-05T00:06:28;5.22;;;2.35;;
78209;SDS011;67485;48.816;9.930;2023-06-05T00:08:54;4.55;;;2.35;;
78209;SDS011;67485;48.816;9.930;2023-06-05T00:11:20;3.87;;;2.33;;
78209;SDS011;67485;48.816;9.930;2023-06-05T00:13:47;5.65;;;2.80;;
78209;SDS011;67485;48.816;9.930;2023-06-05T00:16:12;6.20;;;2.50;;
78209;SDS011;67485;48.816;9.930;2023-06-05T00:18:38;4.50;;;2.90;;
78209;SDS011;67485;48.816;9.930;2023-06-05T00:21:04;4.78;;;2.65;;
78209;SDS011;67485;48.816;9.930;2023-06-05T00:23:30;4.40;;;2.60;;
78209;SDS011;67485;48.816;9.930;2023-06-05T00:25:57;4.90;;;2.70;;
78209;SDS011;67485;48.816;9.930;2023-06-05T00:28:23;4.40;;;2.60;;
78209;SDS011;67485;48.816;9.930;2023-06-05T00:30:49;4.05;;;2.70;;
78209;SDS011;67485;48.816;9.930;2023-06-05T00:33:15;5.80;;;2.60;;
78209;SDS011;67485;48.816;9.930;2023-06-05T00:35:41;5.90;;;2.42;;
78209;SDS011;67485;48.816;9.930;2023-06-05T00:38:06;5.00;;;2.77;;
78209;SDS011;67485;48.816;9.930;2023-06-05T00:40:32;5.43;;;2.40;;
78209;SDS011;67485;48.816;9.930;2023-06-05T00:42:58;6.23;;;2.80;;
78209;SDS011;67485;48.816;9.930;2023-06-05T00:45:24;3.83;;;2.25;;
78209;SDS011;67485;48.816;9.930;2023-06-05T00:47:49;5.50;;;2.73;;
78209;SDS011;67485;48.816;9.930;2023-06-05T00:50:16;4.75;;;2.45;;
78209;SDS011;67485;48.816;9.930;2023-06-05T00:52:42;5.18;;;2.60;;
78209;SDS011;67485;48.816;9.930;2023-06-05T00:55:10;5.25;;;2.42;;
78209;SDS011;67485;48.816;9.930;2023-06-05T00:57:37;4.95;;;2.90;;
78209;SDS011;67485;48.816;9.930;2023-06-05T01:00:04;5.53;;;2.53;;
78209;SDS011;67485;48.816;9.930;2023-06-05T01:02:35;6.22;;;2.60;;
78209;SDS011;67485;48.816;9.930;2023-06-05T01:05:02;3.80;;;2.70;;
78209;SDS011;67485;48.816;9.930;2023-06-05T01:07:29;4.72;;;2.20;;
78209;SDS011;67485;48.816;9.930;2023-06-05T01:10:01;3.97;;;2.58;;
78209;SDS011;67485;48.816;9.930;2023-06-05T01:15:28;4.10;;;2.42;;
78209;SDS011;67485;48.816;9.930;2023-06-05T01:17:55;5.03;;;2.42;;
78209;SDS011;67485;48.816;9.930;2023-06-05T01:20:22;4.80;;;2.13;;
78209;SDS011;67485;48.816;9.930;2023-06-05T01:22:51;4.80;;;2.50;;
78209;SDS011;67485;48.816;9.930;2023-06-05T01:25:19;6.68;;;2.80;;
78209;SDS011;67485;48.816;9.930;2023-06-05T01:27:54;4.60;;;2.40;;
78209;SDS011;67485;48.816;9.930;2023-06-05T01:33:11;4.90;;;2.57;;
78209;SDS011;67485;48.816;9.930;2023-06-05T01:35:42;4.65;;;2.85;;
78209;SDS011;67485;48.816;9.930;2023-06-05T01:38:10;5.97;;;2.65;;
78209;SDS011;67485;48.816;9.930;2023-06-05T01:40:37;6.72;;;2.38;;
78209;SDS011;67485;48.816;9.930;2023-06-05T01:43:04;5.47;;;2.97;;
78209;SDS011;67485;48.816;9.930;2023-06-05T01:45:32;6.50;;;2.60;;
78209;SDS011;67485;48.816;9.930;2023-06-05T01:47:59;5.38;;;2.58;;
78209;SDS011;67485;48.816;9.930;2023-06-05T01:50:25;4.57;;;2.65;;
78209;SDS011;67485;48.816;9.930;2023-06-05T01:52:51;5.72;;;3.03;;
78209;SDS011;67485;48.816;9.930;2023-06-05T01:55:21;4.90;;;2.30;;
78209;SDS011;67485;48.816;9.930;2023-06-05T01:57:52;6.00;;;2.80;;
78209;SDS011;67485;48.816;9.930;2023-06-05T02:00:18;5.03;;;2.70;;
78209;SDS011;67485;48.816;9.930;2023-06-05T02:02:46;5.72;;;2.80;;
78209;SDS011;67485;48.816;9.930;2023-06-05T02:05:13;4.70;;;2.70;;
78209;SDS011;67485;48.816;9.930;2023-06-05T02:07:49;5.77;;;2.60;;
78209;SDS011;67485;48.816;9.930;2023-06-05T02:10:19;5.30;;;2.55;;
78209;SDS011;67485;48.816;9.930;2023-06-05T02:12:45;6.32;;;2.78;;
78209;SDS011;67485;48.816;9.930;2023-06-05T02:15:11;5.00;;;2.30;;
78209;SDS011;67485;48.816;9.930;2023-06-05T02:17:40;3.75;;;2.40;;
78209;SDS011;67485;48.816;9.930;2023-06-05T02:20:19;4.70;;;2.30;;
78209;SDS011;67485;48.816;9.930;2023-06-05T02:22:50;3.95;;;2.67;;
78209;SDS011;67485;48.816;9.930;2023-06-05T02:25:17;4.70;;;2.72;;
78209;SDS011;67485;48.816;9.930;2023-06-05T02:27:44;5.95;;;3.03;;
78209;SDS011;67485;48.816;9.930;2023-06-05T02:30:10;4.32;;;2.67;;
78209;SDS011;67485;48.816;9.930;2023-06-05T02:32:39;5.33;;;2.63;;
78209;SDS011;67485;48.816;9.930;2023-06-05T02:35:11;5.05;;;2.70;;
78209;SDS011;67485;48.816;9.930;2023-06-05T02:37:38;7.63;;;2.63;;
78209;SDS011;67485;48.816;9.930;2023-06-05T02:40:09;4.90;;;2.38;;
78209;SDS011;67485;48.816;9.930;2023-06-05T02:42:37;4.85;;;2.42;;
78209;SDS011;67485;48.816;9.930;2023-06-05T02:45:03;4.53;;;2.60;;
78209;SDS011;67485;48.816;9.930;2023-06-05T02:47:30;5.13;;;2.38;;
78209;SDS011;67485;48.816;9.930;2023-06-05T02:49:57;6.28;;;2.60;;
78209;SDS011;67485;48.816;9.930;2023-06-05T02:52:22;7.60;;;2.80;;
78209;SDS011;67485;48.816;9.930;2023-06-05T02:54:51;5.93;;;2.60;;
78209;SDS011;67485;48.816;9.930;2023-06-05T02:57:17;5.23;;;2.37;;
78209;SDS011;67485;48.816;9.930;2023-06-05T02:59:44;4.40;;;2.30;;
78209;SDS011;67485;48.816;9.930;2023-06-05T03:02:13;5.43;;;3.00;;
78209;SDS011;67485;48.816;9.930;2023-06-05T03:04:41;5.47;;;2.38;;
78209;SDS011;67485;48.816;9.930;2023-06-05T03:07:08;7.80;;;2.78;;
78209;SDS011;67485;48.816;9.930;2023-06-05T03:09:35;5.00;;;2.20;;
78209;SDS011;67485;48.816;9.930;2023-06-05T03:12:04;5.18;;;2.33;;
78209;SDS011;67485;48.816;9.930;2023-06-05T03:14:30;5.32;;;2.55;;
78209;SDS011;67485;48.816;9.930;2023-06-05T03:16:57;10.32;;;2.50;;
78209;SDS011;67485;48.816;9.930;2023-06-05T03:19:24;5.55;;;2.88;;
78209;SDS011;67485;48.816;9.930;2023-06-05T03:21:51;10.60;;;2.90;;
78209;SDS011;67485;48.816;9.930;2023-06-05T03:24:19;5.68;;;2.70;;
78209;SDS011;67485;48.816;9.930;2023-06-05T03:26:51;4.50;;;2.50;;
78209;SDS011;67485;48.816;9.930;2023-06-05T03:29:17;7.38;;;2.72;;
78209;SDS011;67485;48.816;9.930;2023-06-05T03:31:43;6.10;;;2.47;;
78209;SDS011;67485;48.816;9.930;2023-06-05T03:34:09;7.37;;;2.70;;
78209;SDS011;67485;48.816;9.930;2023-06-05T03:36:36;4.30;;;2.60;;
78209;SDS011;67485;48.816;9.930;2023-06-05T03:39:06;6.65;;;2.50;;
78209;SDS011;67485;48.816;9.930;2023-06-05T03:41:33;5.47;;;2.50;;
78209;SDS011;67485;48.816;9.930;2023-06-05T03:43:59;4.73;;;2.20;;
78209;SDS011;67485;48.816;9.930;2023-06-05T03:46:25;5.53;;;2.30;;
78209;SDS011;67485;48.816;9.930;2023-06-05T03:48:55;7.72;;;2.60;;
78209;SDS011;67485;48.816;9.930;2023-06-05T03:51:25;5.60;;;2.70;;
78209;SDS011;67485;48.816;9.930;2023-06-05T03:53:58;9.32;;;2.63;;
78209;SDS011;67485;48.816;9.930;2023-06-05T03:56:25;6.07;;;2.80;;
78209;SDS011;67485;48.816;9.930;2023-06-05T03:59:02;6.53;;;2.58;;
78209;SDS011;67485;48.816;9.930;2023-06-05T04:01:36;4.75;;;2.67;;
78209;SDS011;67485;48.816;9.930;2023-06-05T04:04:05;5.47;;;2.40;;
78209;SDS011;67485;48.816;9.930;2023-06-05T04:06:31;5.13;;;2.60;;
78209;SDS011;67485;48.816;9.930;2023-06-05T04:09:02;6.83;;;3.13;;
78209;SDS011;67485;48.816;9.930;2023-06-05T04:11:39;4.75;;;2.20;;
78209;SDS011;67485;48.816;9.930;2023-06-05T04:14:08;5.57;;;2.47;;
78209;SDS011;67485;48.816;9.930;2023-06-05T04:16:35;8.88;;;2.60;;
78209;SDS011;67485;48.816;9.930;2023-06-05T04:19:06;6.13;;;2.40;;
78209;SDS011;67485;48.816;9.930;2023-06-05T04:21:33;4.83;;;2.33;;
78209;SDS011;67485;48.816;9.930;2023-06-05T04:24:03;4.80;;;2.40;;
78209;SDS011;67485;48.816;9.930;2023-06-05T04:26:33;5.57;;;2.42;;
78209;SDS011;67485;48.816;9.930;2023-06-05T04:28:59;3.67;;;2.30;;
78209;SDS011;67485;48.816;9.930;2023-06-05T04:31:27;6.05;;;2.90;;
78209;SDS011;67485;48.816;9.930;2023-06-05T04:33:56;9.50;;;2.87;;
78209;SDS011;67485;48.816;9.930;2023-06-05T04:36:22;4.38;;;2.40;;
78209;SDS011;67485;48.816;9.930;2023-06-05T04:38:48;4.45;;;2.65;;
78209;SDS011;67485;48.816;9.930;2023-06-05T04:41:14;4.30;;;2.53;;
78209;SDS011;67485;48.816;9.930;2023-06-05T04:43:40;4.60;;;2.33;;
78209;SDS011;67485;48.816;9.930;2023-06-05T04:46:06;7.28;;;2.90;;
78209;SDS011;67485;48.816;9.930;2023-06-05T04:48:32;5.00;;;2.50;;
78209;SDS011;67485;48.816;9.930;2023-06-05T04:51:00;5.07;;;2.40;;
78209;SDS011;67485;48.816;9.930;2023-06-05T04:53:26;4.80;;;2.80;;
78209;SDS011;67485;48.816;9.930;2023-06-05T04:55:57;4.45;;;2.60;;
78209;SDS011;67485;48.816;9.930;2023-06-05T04:58:27;5.18;;;2.85;;
78209;SDS011;67485;48.816;9.930;2023-06-05T05:00:52;5.53;;;2.70;;
78209;SDS011;67485;48.816;9.930;2023-06-05T05:03:20;6.03;;;2.30;;
78209;SDS011;67485;48.816;9.930;2023-06-05T05:05:46;7.57;;;2.80;;
78209;SDS011;67485;48.816;9.930;2023-06-05T05:08:13;6.22;;;2.65;;
78209;SDS011;67485;48.816;9.930;2023-06-05T05:10:39;7.13;;;2.45;;
78209;SDS011;67485;48.816;9.930;2023-06-05T05:13:05;6.30;;;2.30;;
78209;SDS011;67485;48.816;9.930;2023-06-05T05:15:31;8.30;;;2.45;;
78209;SDS011;67485;48.816;9.930;2023-06-05T05:17:59;7.68;;;2.72;;
78209;SDS011;67485;48.816;9.930;2023-06-05T05:20:28;6.97;;;2.45;;
78209;SDS011;67485;48.816;9.930;2023-06-05T05:22:54;5.78;;;2.67;;
78209;SDS011;67485;48.816;9.930;2023-06-05T05:25:21;6.17;;;2.63;;
78209;SDS011;67485;48.816;9.930;2023-06-05T05:27:47;4.32;;;2.38;;
78209;SDS011;67485;48.816;9.930;2023-06-05T05:30:14;9.18;;;2.60;;
78209;SDS011;67485;48.816;9.930;2023-06-05T05:32:40;7.00;;;2.78;;
78209;SDS011;67485;48.816;9.930;2023-06-05T05:35:08;5.77;;;2.37;;
78209;SDS011;67485;48.816;9.930;2023-06-05T05:37:34;5.90;;;2.30;;
78209;SDS011;67485;48.816;9.930;2023-06-05T05:39:59;5.35;;;2.40;;
78209;SDS011;67485;48.816;9.930;2023-06-05T05:42:25;5.50;;;3.00;;
78209;SDS011;67485;48.816;9.930;2023-06-05T05:44:51;6.00;;;2.33;;
78209;SDS011;67485;48.816;9.930;2023-06-05T05:47:16;5.43;;;2.20;;
78209;SDS011;67485;48.816;9.930;2023-06-05T05:49:42;4.55;;;2.28;;
78209;SDS011;67485;48.816;9.930;2023-06-05T05:52:08;5.97;;;2.50;;
78209;SDS011;67485;48.816;9.930;2023-06-05T05:54:34;4.20;;;2.60;;
78209;SDS011;67485;48.816;9.930;2023-06-05T05:57:00;7.47;;;2.30;;
78209;SDS011;67485;48.816;9.930;2023-06-05T05:59:25;6.37;;;2.93;;
78209;SDS011;67485;48.816;9.930;2023-06-05T06:01:51;4.93;;;2.60;;
78209;SDS011;67485;48.816;9.930;2023-06-05T06:04:17;3.92;;;2.25;;
78209;SDS011;67485;48.816;9.930;2023-06-05T06:06:44;6.57;;;2.60;;
78209;SDS011;67485;48.816;9.930;2023-06-05T06:09:12;6.60;;;2.35;;
78209;SDS011;67485;48.816;9.930;2023-06-05T06:11:39;4.15;;;2.42;;
78209;SDS011;67485;48.816;9.930;2023-06-05T06:14:07;5.90;;;2.53;;
78209;SDS011;67485;48.816;9.930;2023-06-05T06:16:36;5.18;;;3.03;;
78209;SDS011;67485;48.816;9.930;2023-06-05T06:19:03;3.87;;;2.30;;
78209;SDS011;67485;48.816;9.930;2023-06-05T06:21:29;3.42;;;2.20;;
78209;SDS011;67485;48.816;9.930;2023-06-05T06:23:56;4.30;;;2.28;;
78209;SDS011;67485;48.816;9.930;2023-06-05T06:26:22;4.53;;;2.55;;
78209;SDS011;67485;48.816;9.930;2023-06-05T06:28:48;6.10;;;2.23;;
78209;SDS011;67485;48.816;9.930;2023-06-05T06:31:14;5.85;;;2.28;;
78209;SDS011;67485;48.816;9.930;2023-06-05T06:33:40;4.15;;;2.38;;
78209;SDS011;67485;48.816;9.930;2023-06-05T06:36:06;3.90;;;2.47;;
78209;SDS011;67485;48.816;9.930;2023-06-05T06:38:31;4.38;;;2.15;;
78209;SDS011;67485;48.816;9.930;2023-06-05T06:40:58;6.78;;;2.30;;
78209;SDS011;67485;48.816;9.930;2023-06-05T06:43:24;7.10;;;2.60;;
78209;SDS011;67485;48.816;9.930;2023-06-05T06:45:56;3.85;;;2.03;;
78209;SDS011;67485;48.816;9.930;2023-06-05T06:48:22;5.85;;;2.45;;
78209;SDS011;67485;48.816;9.930;2023-06-05T06:50:47;5.43;;;2.30;;
78209;SDS011;67485;48.816;9.930;2023-06-05T06:53:13;4.82;;;2.22;;
78209;SDS011;67485;48.816;9.930;2023-06-05T06:55:39;5.77;;;2.17;;
78209;SDS011;67485;48.816;9.930;2023-06-05T06:58:05;5.22;;;2.10;;
78209;SDS011;67485;48.816;9.930;2023-06-05T07:00:31;3.30;;;2.50;;
78209;SDS011;67485;48.816;9.930;2023-06-05T07:02:56;4.60;;;2.05;;
78209;SDS011;67485;48.816;9.930;2023-06-05T07:05:22;3.37;;;2.30;;
78209;SDS011;67485;48.816;9.930;2023-06-05T07:07:48;4.28;;;2.47;;
78209;SDS011;67485;48.816;9.930;2023-06-05T07:10:13;3.70;;;2.40;;
78209;SDS011;67485;48.816;9.930;2023-06-05T07:12:39;8.03;;;2.40;;
78209;SDS011;67485;48.816;9.930;2023-06-05T07:15:05;4.90;;;2.17;;
78209;SDS011;67485;48.816;9.930;2023-06-05T07:17:31;7.25;;;2.13;;
78209;SDS011;67485;48.816;9.930;2023-06-05T07:19:57;4.27;;;2.33;;
78209;SDS011;67485;48.816;9.930;2023-06-05T07:22:23;5.47;;;2.25;;
78209;SDS011;67485;48.816;9.930;2023-06-05T07:24:53;6.18;;;2.15;;
78209;SDS011;67485;48.816;9.930;2023-06-05T07:27:19;5.67;;;2.50;;
78209;SDS011;67485;48.816;9.930;2023-06-05T07:29:45;5.72;;;2.28;;
78209;SDS011;67485;48.816;9.930;2023-06-05T07:32:12;5.03;;;2.70;;
78209;SDS011;67485;48.816;9.930;2023-06-05T07:34:38;4.55;;;2.53;;
78209;SDS011;67485;48.816;9.930;2023-06-05T07:37:04;7.20;;;2.10;;
78209;SDS011;67485;48.816;9.930;2023-06-05T07:39:32;4.20;;;2.07;;
78209;SDS011;67485;48.816;9.930;2023-06-05T07:41:58;4.78;;;2.20;;
78209;SDS011;67485;48.816;9.930;2023-06-05T07:44:24;6.38;;;2.95;;
78209;SDS011;67485;48.816;9.930;2023-06-05T07:46:51;4.70;;;2.47;;
78209;SDS011;67485;48.816;9.930;2023-06-05T07:49:17;5.78;;;2.55;;
78209;SDS011;67485;48.816;9.930;2023-06-05T07:51:44;5.22;;;2.70;;
78209;SDS011;67485;48.816;9.930;2023-06-05T07:54:12;5.00;;;2.92;;
78209;SDS011;67485;48.816;9.930;2023-06-05T07:56:40;5.20;;;2.80;;
78209;SDS011;67485;48.816;9.930;2023-06-05T07:59:06;7.43;;;3.27;;
78209;SDS011;67485;48.816;9.930;2023-06-05T08:01:33;4.30;;;2.67;;
78209;SDS011;67485;48.816;9.930;2023-06-05T08:04:03;6.22;;;2.85;;
78209;SDS011;67485;48.816;9.930;2023-06-05T08:06:30;5.22;;;2.90;;
78209;SDS011;67485;48.816;9.930;2023-06-05T08:09:00;7.30;;;2.97;;
78209;SDS011;67485;48.816;9.930;2023-06-05T08:11:27;6.00;;;3.07;;
78209;SDS011;67485;48.816;9.930;2023-06-05T08:13:53;5.90;;;2.97;;
78209;SDS011;67485;48.816;9.930;2023-06-05T08:16:20;8.25;;;2.83;;
78209;SDS011;67485;48.816;9.930;2023-06-05T08:18:46;4.45;;;2.90;;
78209;SDS011;67485;48.816;9.930;2023-06-05T08:21:12;8.30;;;3.00;;
78209;SDS011;67485;48.816;9.930;2023-06-05T08:23:38;3.58;;;2.63;;
78209;SDS011;67485;48.816;9.930;2023-06-05T08:26:04;4.82;;;3.20;;
78209;SDS011;67485;48.816;9.930;2023-06-05T08:28:39;7.13;;;3.40;;
78209;SDS011;67485;48.816;9.930;2023-06-05T08:31:08;6.00;;;3.07;;
78209;SDS011;67485;48.816;9.930;2023-06-05T08:33:34;7.28;;;2.92;;
78209;SDS011;67485;48.816;9.930;2023-06-05T08:36:00;7.18;;;3.90;;
78209;SDS011;67485;48.816;9.930;2023-06-05T08:38:28;4.05;;;2.85;;
78209;SDS011;67485;48.816;9.930;2023-06-05T08:41:01;6.20;;;3.40;;
78209;SDS011;67485;48.816;9.930;2023-06-05T08:43:36;10.00;;;3.30;;
78209;SDS011;67485;48.816;9.930;2023-06-05T08:46:04;6.28;;;3.25;;
78209;SDS011;67485;48.816;9.930;2023-06-05T08:48:36;6.07;;;3.30;;
78209;SDS011;67485;48.816;9.930;2023-06-05T08:51:06;7.50;;;3.28;;
78209;SDS011;67485;48.816;9.930;2023-06-05T08:53:36;6.38;;;3.25;;
78209;SDS011;67485;48.816;9.930;2023-06-05T08:56:04;5.20;;;3.13;;
78209;SDS011;67485;48.816;9.930;2023-06-05T08:58:31;4.47;;;2.70;;
78209;SDS011;67485;48.816;9.930;2023-06-05T09:00:58;5.45;;;3.22;;
78209;SDS011;67485;48.816;9.930;2023-06-05T09:03:24;6.53;;;3.00;;
78209;SDS011;67485;48.816;9.930;2023-06-05T09:05:51;5.47;;;2.77;;
78209;SDS011;67485;48.816;9.930;2023-06-05T09:08:19;5.35;;;3.05;;
78209;SDS011;67485;48.816;9.930;2023-06-05T09:11:18;4.00;;;2.83;;
78209;SDS011;67485;48.816;9.930;2023-06-05T09:13:47;7.10;;;3.25;;
78209;SDS011;67485;48.816;9.930;2023-06-05T09:16:13;11.23;;;3.53;;
78209;SDS011;67485;48.816;9.930;2023-06-05T09:18:53;7.90;;;2.63;;
78209;SDS011;67485;48.816;9.930;2023-06-05T09:21:22;7.00;;;3.08;;
78209;SDS011;67485;48.816;9.930;2023-06-05T09:29:21;4.53;;;3.03;;
78209;SDS011;67485;48.816;9.930;2023-06-05T09:31:48;4.97;;;2.90;;
78209;SDS011;67485;48.816;9.930;2023-06-05T09:34:53;5.18;;;3.17;;
78209;SDS011;67485;48.816;9.930;2023-06-05T09:37:07;4.00;;;3.08;;
78209;SDS011;67485;48.816;9.930;2023-06-05T09:39:35;6.35;;;3.13;;
78209;SDS011;67485;48.816;9.930;2023-06-05T09:42:02;5.60;;;3.50;;
78209;SDS011;67485;48.816;9.930;2023-06-05T09:44:29;5.20;;;2.97;;
78209;SDS011;67485;48.816;9.930;2023-06-05T09:49:31;8.65;;;3.20;;
78209;SDS011;67485;48.816;9.930;2023-06-05T09:52:11;5.75;;;3.22;;
78209;SDS011;67485;48.816;9.930;2023-06-05T09:54:39;5.07;;;2.53;;
78209;SDS011;67485;48.816;9.930;2023-06-05T09:57:07;5.47;;;3.10;;
78209;SDS011;67485;48.816;9.930;2023-06-05T09:59:45;7.40;;;3.20;;
78209;SDS011;67485;48.816;9.930;2023-06-05T10:02:23;4.20;;;2.88;;
78209;SDS011;67485;48.816;9.930;2023-06-05T10:04:56;6.78;;;2.75;;
78209;SDS011;67485;48.816;9.930;2023-06-05T10:07:25;4.60;;;2.90;;
78209;SDS011;67485;48.816;9.930;2023-06-05T10:09:52;5.57;;;2.87;;
78209;SDS011;67485;48.816;9.930;2023-06-05T10:12:19;5.18;;;2.95;;
78209;SDS011;67485;48.816;9.930;2023-06-05T10:14:45;6.45;;;2.80;;
78209;SDS011;67485;48.816;9.930;2023-06-05T10:17:13;6.47;;;3.00;;
78209;SDS011;67485;48.816;9.930;2023-06-05T10:19:43;6.03;;;2.90;;
78209;SDS011;67485;48.816;9.930;2023-06-05T10:22:10;4.77;;;3.43;;
78209;SDS011;67485;48.816;9.930;2023-06-05T10:24:39;6.35;;;2.75;;
78209;SDS011;67485;48.816;9.930;2023-06-05T10:32:07;6.13;;;3.33;;
78209;SDS011;67485;48.816;9.930;2023-06-05T10:40:43;4.95;;;3.47;;
78209;SDS011;67485;48.816;9.930;2023-06-05T10:43:23;4.87;;;3.27;;
78209;SDS011;67485;48.816;9.930;2023-06-05T10:46:01;5.65;;;3.10;;
78209;SDS011;67485;48.816;9.930;2023-06-05T10:49:06;4.97;;;3.53;;
78209;SDS011;67485;48.816;9.930;2023-06-05T10:56:53;6.07;;;3.50;;
78209;SDS011;67485;48.816;9.930;2023-06-05T10:59:39;7.05;;;3.63;;
78209;SDS011;67485;48.816;9.930;2023-06-05T11:07:21;6.43;;;3.78;;
78209;SDS011;67485;48.816;9.930;2023-06-05T11:10:03;5.80;;;3.50;;
78209;SDS011;67485;48.816;9.930;2023-06-05T11:12:58;8.68;;;3.65;;
78209;SDS011;67485;48.816;9.930;2023-06-05T11:17:55;5.10;;;3.17;;
78209;SDS011;67485;48.816;9.930;2023-06-05T11:30:39;5.30;;;3.40;;
78209;SDS011;67485;48.816;9.930;2023-06-05T11:33:06;6.53;;;3.58;;
78209;SDS011;67485;48.816;9.930;2023-06-05T11:35:34;4.77;;;3.73;;
78209;SDS011;67485;48.816;9.930;2023-06-05T11:38:07;4.00;;;3.28;;
78209;SDS011;67485;48.816;9.930;2023-06-05T11:40:34;8.48;;;3.40;;
78209;SDS011;67485;48.816;9.930;2023-06-05T11:43:07;7.80;;;3.70;;
78209;SDS011;67485;48.816;9.930;2023-06-05T11:45:35;7.78;;;3.53;;
78209;SDS011;67485;48.816;9.930;2023-06-05T11:48:03;5.53;;;3.70;;
78209;SDS011;67485;48.816;9.930;2023-06-05T11:50:36;5.75;;;3.30;;
78209;SDS011;67485;48.816;9.930;2023-06-05T11:53:07;9.75;;;3.83;;
78209;SDS011;67485;48.816;9.930;2023-06-05T11:55:34;7.20;;;3.30;;
78209;SDS011;67485;48.816;9.930;2023-06-05T11:58:26;6.35;;;3.30;;
78209;SDS011;67485;48.816;9.930;2023-06-05T12:03:38;3.80;;;3.40;;
78209;SDS011;67485;48.816;9.930;2023-06-05T12:06:04;6.25;;;3.85;;
78209;SDS011;67485;48.816;9.930;2023-06-05T12:08:31;4.35;;;3.47;;
78209;SDS011;67485;48.816;9.930;2023-06-05T12:11:19;8.63;;;3.65;;
78209;SDS011;67485;48.816;9.930;2023-06-05T12:13:48;6.70;;;3.57;;
78209;SDS011;67485;48.816;9.930;2023-06-05T12:16:15;7.47;;;4.03;;
78209;SDS011;67485;48.816;9.930;2023-06-05T12:18:42;6.28;;;3.92;;
78209;SDS011;67485;48.816;9.930;2023-06-05T12:21:18;9.02;;;3.22;;
78209;SDS011;67485;48.816;9.930;2023-06-05T12:23:45;6.00;;;3.33;;
78209;SDS011;67485;48.816;9.930;2023-06-05T12:26:10;9.10;;;3.23;;
78209;SDS011;67485;48.816;9.930;2023-06-05T12:28:37;9.02;;;3.85;;
78209;SDS011;67485;48.816;9.930;2023-06-05T12:31:02;7.27;;;3.57;;
78209;SDS011;67485;48.816;9.930;2023-06-05T12:33:28;7.22;;;3.83;;
78209;SDS011;67485;48.816;9.930;2023-06-05T12:36:06;7.73;;;3.70;;
78209;SDS011;67485;48.816;9.930;2023-06-05T12:38:39;6.43;;;3.80;;
78209;SDS011;67485;48.816;9.930;2023-06-05T12:41:06;5.60;;;3.70;;
78209;SDS011;67485;48.816;9.930;2023-06-05T12:43:32;4.88;;;3.40;;
78209;SDS011;67485;48.816;9.930;2023-06-05T12:45:59;5.47;;;3.55;;
78209;SDS011;67485;48.816;9.930;2023-06-05T12:48:24;4.73;;;3.67;;
78209;SDS011;67485;48.816;9.930;2023-06-05T12:50:50;5.57;;;3.67;;
78209;SDS011;67485;48.816;9.930;2023-06-05T12:53:16;5.03;;;3.63;;
78209;SDS011;67485;48.816;9.930;2023-06-05T12:55:43;5.15;;;3.50;;
78209;SDS011;67485;48.816;9.930;2023-06-05T12:58:09;6.90;;;4.00;;
78209;SDS011;67485;48.816;9.930;2023-06-05T13:00:35;5.32;;;3.70;;
78209;SDS011;67485;48.816;9.930;2023-06-05T13:03:01;6.00;;;3.55;;
78209;SDS011;67485;48.816;9.930;2023-06-05T13:05:28;6.13;;;3.50;;
78209;SDS011;67485;48.816;9.930;2023-06-05T13:07:57;7.28;;;3.75;;
78209;SDS011;67485;48.816;9.930;2023-06-05T13:10:23;6.57;;;3.40;;
78209;SDS011;67485;48.816;9.930;2023-06-05T13:12:49;7.13;;;3.53;;
78209;SDS011;67485;48.816;9.930;2023-06-05T13:15:14;5.63;;;3.67;;
78209;SDS011;67485;48.816;9.930;2023-06-05T13:17:40;7.20;;;3.42;;
78209;SDS011;67485;48.816;9.930;2023-06-05T13:20:06;4.67;;;3.70;;
78209;SDS011;67485;48.816;9.930;2023-06-05T13:22:36;5.45;;;3.83;;
78209;SDS011;67485;48.816;9.930;2023-06-05T13:25:03;5.13;;;3.40;;
78209;SDS011;67485;48.816;9.930;2023-06-05T13:27:30;6.70;;;3.70;;
78209;SDS011;67485;48.816;9.930;2023-06-05T13:29:55;5.07;;;3.50;;
78209;SDS011;67485;48.816;9.930;2023-06-05T13:32:21;7.07;;;4.00;;
78209;SDS011;67485;48.816;9.930;2023-06-05T13:34:47;7.73;;;3.67;;
78209;SDS011;67485;48.816;9.930;2023-06-05T13:37:12;5.50;;;3.97;;
78209;SDS011;67485;48.816;9.930;2023-06-05T13:39:38;6.40;;;3.93;;
78209;SDS011;67485;48.816;9.930;2023-06-05T13:42:04;4.50;;;3.50;;
78209;SDS011;67485;48.816;9.930;2023-06-05T13:44:30;4.43;;;3.30;;
78209;SDS011;67485;48.816;9.930;2023-06-05T13:46:56;5.28;;;3.50;;
78209;SDS011;67485;48.816;9.930;2023-06-05T13:49:22;5.05;;;3.22;;
78209;SDS011;67485;48.816;9.930;2023-06-05T13:51:48;5.67;;;3.77;;
78209;SDS011;67485;48.816;9.930;2023-06-05T13:54:14;6.75;;;3.72;;
78209;SDS011;67485;48.816;9.930;2023-06-05T13:56:39;4.90;;;3.87;;
78209;SDS011;67485;48.816;9.930;2023-06-05T13:59:05;4.57;;;3.50;;
78209;SDS011;67485;48.816;9.930;2023-06-05T14:01:31;6.20;;;3.63;;
78209;SDS011;67485;48.816;9.930;2023-06-05T14:03:56;7.72;;;3.47;;
78209;SDS011;67485;48.816;9.930;2023-06-05T14:06:22;5.93;;;3.27;;
78209;SDS011;67485;48.816;9.930;2023-06-05T14:08:48;5.57;;;3.83;;
78209;SDS011;67485;48.816;9.930;2023-06-05T14:11:14;6.43;;;3.85;;
78209;SDS011;67485;48.816;9.930;2023-06-05T14:13:40;6.83;;;3.70;;
78209;SDS011;67485;48.816;9.930;2023-06-05T14:16:07;6.50;;;3.90;;
78209;SDS011;67485;48.816;9.930;2023-06-05T14:18:35;6.30;;;3.85;;
78209;SDS011;67485;48.816;9.930;2023-06-05T14:21:01;6.38;;;3.60;;
78209;SDS011;67485;48.816;9.930;2023-06-05T14:23:27;6.03;;;3.97;;
78209;SDS011;67485;48.816;9.930;2023-06-05T14:25:53;6.45;;;3.78;;
78209;SDS011;67485;48.816;9.930;2023-06-05T14:28:18;4.37;;;3.80;;
78209;SDS011;67485;48.816;9.930;2023-06-05T14:30:48;6.20;;;3.88;;
78209;SDS011;67485;48.816;9.930;2023-06-05T14:33:14;5.30;;;3.70;;
78209;SDS011;67485;48.816;9.930;2023-06-05T14:35:42;6.75;;;3.80;;
78209;SDS011;67485;48.816;9.930;2023-06-05T14:38:08;6.38;;;3.58;;
78209;SDS011;67485;48.816;9.930;2023-06-05T14:40:38;6.83;;;3.90;;
78209;SDS011;67485;48.816;9.930;2023-06-05T14:43:04;7.47;;;3.78;;
78209;SDS011;67485;48.816;9.930;2023-06-05T14:45:31;5.32;;;3.85;;
78209;SDS011;67485;48.816;9.930;2023-06-05T14:47:57;6.43;;;3.70;;
78209;SDS011;67485;48.816;9.930;2023-06-05T14:50:22;6.40;;;4.30;;
78209;SDS011;67485;48.816;9.930;2023-06-05T14:52:48;5.47;;;4.05;;
78209;SDS011;67485;48.816;9.930;2023-06-05T14:55:14;5.30;;;4.17;;
78209;SDS011;67485;48.816;9.930;2023-06-05T14:57:40;6.35;;;3.88;;
78209;SDS011;67485;48.816;9.930;2023-06-05T15:00:05;4.90;;;3.77;;
78209;SDS011;67485;48.816;9.930;2023-06-05T15:02:33;5.20;;;3.72;;
78209;SDS011;67485;48.816;9.930;2023-06-05T15:04:59;12.35;;;4.28;;
78209;SDS011;67485;48.816;9.930;2023-06-05T15:07:25;4.95;;;3.50;;
78209;SDS011;67485;48.816;9.930;2023-06-05T15:09:59;5.87;;;3.40;;
78209;SDS011;67485;48.816;9.930;2023-06-05T15:12:25;4.93;;;3.42;;
78209;SDS011;67485;48.816;9.930;2023-06-05T15:14:51;5.50;;;3.67;;
78209;SDS011;67485;48.816;9.930;2023-06-05T15:17:16;6.55;;;3.80;;
78209;SDS011;67485;48.816;9.930;2023-06-05T15:19:42;6.45;;;4.30;;
78209;SDS011;67485;48.816;9.930;2023-06-05T15:22:10;8.53;;;3.90;;
78209;SDS011;67485;48.816;9.930;2023-06-05T15:24:35;6.57;;;3.50;;
78209;SDS011;67485;48.816;9.930;2023-06-05T15:27:01;6.70;;;4.20;;
78209;SDS011;67485;48.816;9.930;2023-06-05T15:29:28;7.93;;;3.70;;
78209;SDS011;67485;48.816;9.930;2023-06-05T15:31:54;6.13;;;3.40;;
78209;SDS011;67485;48.816;9.930;2023-06-05T15:34:20;6.40;;;3.65;;
78209;SDS011;67485;48.816;9.930;2023-06-05T15:36:45;7.67;;;4.27;;
78209;SDS011;67485;48.816;9.930;2023-06-05T15:39:11;5.93;;;3.60;;
78209;SDS011;67485;48.816;9.930;2023-06-05T15:41:38;7.27;;;4.03;;
78209;SDS011;67485;48.816;9.930;2023-06-05T15:44:04;8.65;;;4.00;;